sensor_id;sensor_type;location;lat;lon;timestamp;pressure;altitude;pressure_sealevel;temperature;humidity
38225;BME280;24025;48.138;11.428;2022-09-13T00:02:06;95313.53;;;13.27;73.40
38225;BME280;24025;48.138;11.428;2022-09-13T00:04:36;95313.50;;;13.23;73.23
38225;BME280;24025;48.138;11.428;2022-09-13T00:07:07;95322.69;;;13.19;73.28
38225;BME280;24025;48.138;11.428;2022-09-13T00:09:37;95316.22;;;13.20;73.10
38225;BME280;24025;48.138;11.428;2022-09-13T00:12:08;95305.44;;;13.16;73.14
38225;BME280;24025;48.138;11.428;2022-09-13T00:14:38;95308.53;;;13.11;73.27
38225;BME280;24025;48.138;11.428;2022-09-13T00:17:09;95292.09;;;13.02;73.95
38225;BME280;24025;48.138;11.428;2022-09-13T00:19:39;95295.13;;;12.97;74.28
38225;BME280;24025;48.138;11.428;2022-09-13T00:22:09;95293.63;;;12.96;74.41
38225;BME280;24025;48.138;11.428;2022-09-13T00:24:40;95299.34;;;12.94;73.79
38225;BME280;24025;48.138;11.428;2022-09-13T00:27:10;95285.22;;;12.90;73.91
38225;BME280;24025;48.138;11.428;2022-09-13T00:29:42;95280.63;;;12.87;73.83
38225;BME280;24025;48.138;11.428;2022-09-13T00:32:12;95284.06;;;12.88;73.67
38225;BME280;24025;48.138;11.428;2022-09-13T00:34:42;95276.03;;;12.84;73.91
38225;BME280;24025;48.138;11.428;2022-09-13T00:37:13;95276.03;;;12.81;73.98
38225;BME280;24025;48.138;11.428;2022-09-13T00:39:43;95285.59;;;12.74;74.14
38225;BME280;24025;48.138;11.428;2022-09-13T00:42:14;95291.31;;;12.69;74.23
38225;BME280;24025;48.138;11.428;2022-09-13T00:44:53;95287.47;;;12.70;73.96
38225;BME280;24025;48.138;11.428;2022-09-13T00:47:54;95294.38;;;12.68;74.21
38225;BME280;24025;48.138;11.428;2022-09-13T00:50:30;95291.69;;;12.68;73.82
38225;BME280;24025;48.138;11.428;2022-09-13T00:53:08;95285.97;;;12.66;73.98
38225;BME280;24025;48.138;11.428;2022-09-13T00:55:43;95287.88;;;12.65;73.82
38225;BME280;24025;48.138;11.428;2022-09-13T00:58:19;95277.56;;;12.64;73.71
38225;BME280;24025;48.138;11.428;2022-09-13T01:00:50;95278.69;;;12.59;73.58
38225;BME280;24025;48.138;11.428;2022-09-13T01:03:24;95271.44;;;12.60;73.86
38225;BME280;24025;48.138;11.428;2022-09-13T01:06:04;95264.16;;;12.60;73.65
38225;BME280;24025;48.138;11.428;2022-09-13T01:08:39;95266.09;;;12.56;73.68
38225;BME280;24025;48.138;11.428;2022-09-13T01:11:16;95258.81;;;12.50;74.09
38225;BME280;24025;48.138;11.428;2022-09-13T01:13:48;95260.34;;;12.51;74.33
38225;BME280;24025;48.138;11.428;2022-09-13T01:16:20;95246.97;;;12.47;73.95
38225;BME280;24025;48.138;11.428;2022-09-13T01:18:50;95244.66;;;12.45;74.25
38225;BME280;24025;48.138;11.428;2022-09-13T01:38:38;95246.97;;;12.43;73.54
38225;BME280;24025;48.138;11.428;2022-09-13T01:47:26;95245.44;;;12.28;73.64
38225;BME280;24025;48.138;11.428;2022-09-13T01:52:48;95243.13;;;12.23;73.98
38225;BME280;24025;48.138;11.428;2022-09-13T01:55:34;95234.72;;;12.21;74.12
38225;BME280;24025;48.138;11.428;2022-09-13T02:00:51;95238.91;;;12.22;74.61
38225;BME280;24025;48.138;11.428;2022-09-13T02:03:38;95232.03;;;12.21;74.53
38225;BME280;24025;48.138;11.428;2022-09-13T02:06:19;95235.47;;;12.22;74.39
38225;BME280;24025;48.138;11.428;2022-09-13T02:08:56;95226.69;;;12.21;74.67
38225;BME280;24025;48.138;11.428;2022-09-13T02:11:30;95230.13;;;12.22;74.47
38225;BME280;24025;48.138;11.428;2022-09-13T02:14:06;95230.53;;;12.20;74.61
38225;BME280;24025;48.138;11.428;2022-09-13T02:16:45;95240.44;;;12.19;74.88
38225;BME280;24025;48.138;11.428;2022-09-13T02:19:33;95246.56;;;12.20;74.50
38225;BME280;24025;48.138;11.428;2022-09-13T02:22:07;95235.47;;;12.14;74.31
38225;BME280;24025;48.138;11.428;2022-09-13T02:24:41;95235.47;;;12.11;74.73
38225;BME280;24025;48.138;11.428;2022-09-13T02:27:14;95244.25;;;12.11;74.99
38225;BME280;24025;48.138;11.428;2022-09-13T02:29:49;95245.41;;;12.10;75.17
38225;BME280;24025;48.138;11.428;2022-09-13T02:32:30;95232.78;;;12.11;74.92
38225;BME280;24025;48.138;11.428;2022-09-13T02:35:19;95241.97;;;12.13;74.46
38225;BME280;24025;48.138;11.428;2022-09-13T02:37:57;95243.88;;;12.13;74.27
38225;BME280;24025;48.138;11.428;2022-09-13T02:40:36;95240.81;;;12.14;74.98
38225;BME280;24025;48.138;11.428;2022-09-13T02:43:13;95239.25;;;12.10;75.21
38225;BME280;24025;48.138;11.428;2022-09-13T02:46:05;95238.13;;;12.11;75.02
38225;BME280;24025;48.138;11.428;2022-09-13T02:48:55;95243.47;;;12.11;75.40
38225;BME280;24025;48.138;11.428;2022-09-13T02:51:50;95250.34;;;12.12;75.19
38225;BME280;24025;48.138;11.428;2022-09-13T02:54:36;95240.81;;;12.11;75.32
38225;BME280;24025;48.138;11.428;2022-09-13T02:57:20;95233.53;;;12.08;75.34
38225;BME280;24025;48.138;11.428;2022-09-13T02:59:56;95231.63;;;12.05;75.59
38225;BME280;24025;48.138;11.428;2022-09-13T03:02:31;95243.84;;;12.02;75.37
38225;BME280;24025;48.138;11.428;2022-09-13T03:05:02;95244.19;;;11.94;75.62
38225;BME280;24025;48.138;11.428;2022-09-13T03:07:33;95249.53;;;11.94;75.87
38225;BME280;24025;48.138;11.428;2022-09-13T03:10:06;95246.47;;;11.88;76.03
38225;BME280;24025;48.138;11.428;2022-09-13T03:15:32;95257.16;;;11.91;76.26
38225;BME280;24025;48.138;11.428;2022-09-13T03:18:23;95247.59;;;11.90;76.14
38225;BME280;24025;48.138;11.428;2022-09-13T03:21:07;95249.91;;;11.88;76.12
38225;BME280;24025;48.138;11.428;2022-09-13T03:24:04;95242.66;;;11.85;76.23
38225;BME280;24025;48.138;11.428;2022-09-13T03:27:26;95240.75;;;11.86;76.25
38225;BME280;24025;48.138;11.428;2022-09-13T03:32:35;95220.88;;;11.87;76.67
38225;BME280;24025;48.138;11.428;2022-09-13T03:41:30;95216.66;;;11.82;76.43
38225;BME280;24025;48.138;11.428;2022-09-13T03:43:48;95225.44;;;11.83;76.83
38225;BME280;24025;48.138;11.428;2022-09-13T03:46:38;95236.88;;;11.83;76.47
38225;BME280;24025;48.138;11.428;2022-09-13T03:49:15;95237.28;;;11.82;76.32
38225;BME280;24025;48.138;11.428;2022-09-13T03:51:47;95244.16;;;11.83;76.45
38225;BME280;24025;48.138;11.428;2022-09-13T03:54:21;95249.50;;;11.83;76.21
38225;BME280;24025;48.138;11.428;2022-09-13T03:57:17;95240.34;;;11.84;76.42
38225;BME280;24025;48.138;11.428;2022-09-13T03:59:54;95250.25;;;11.83;76.22
38225;BME280;24025;48.138;11.428;2022-09-13T04:02:26;95239.56;;;11.80;76.72
38225;BME280;24025;48.138;11.428;2022-09-13T04:04:56;95244.13;;;11.76;77.08
38225;BME280;24025;48.138;11.428;2022-09-13T04:07:27;95247.50;;;11.73;77.10
38225;BME280;24025;48.138;11.428;2022-09-13T04:09:57;95236.44;;;11.71;77.02
38225;BME280;24025;48.138;11.428;2022-09-13T04:12:28;95236.06;;;11.69;76.99
38225;BME280;24025;48.138;11.428;2022-09-13T04:15:00;95238.75;;;11.69;77.41
38225;BME280;24025;48.138;11.428;2022-09-13T04:17:31;95240.66;;;11.68;77.36
38225;BME280;24025;48.138;11.428;2022-09-13T04:20:02;95235.69;;;11.67;77.30
38225;BME280;24025;48.138;11.428;2022-09-13T04:22:33;95236.84;;;11.69;77.39
38225;BME280;24025;48.138;11.428;2022-09-13T04:25:04;95235.69;;;11.70;77.37
38225;BME280;24025;48.138;11.428;2022-09-13T04:27:35;95236.44;;;11.71;77.81
38225;BME280;24025;48.138;11.428;2022-09-13T04:30:06;95235.31;;;11.72;77.53
38225;BME280;24025;48.138;11.428;2022-09-13T04:32:36;95235.69;;;11.70;77.64
38225;BME280;24025;48.138;11.428;2022-09-13T04:35:07;95240.66;;;11.72;78.04
38225;BME280;24025;48.138;11.428;2022-09-13T04:37:38;95243.72;;;11.77;78.61
38225;BME280;24025;48.138;11.428;2022-09-13T04:40:09;95247.94;;;11.78;78.26
38225;BME280;24025;48.138;11.428;2022-09-13T04:42:40;95248.31;;;11.77;78.23
38225;BME280;24025;48.138;11.428;2022-09-13T04:45:12;95244.88;;;11.76;77.94
38225;BME280;24025;48.138;11.428;2022-09-13T04:47:43;95242.22;;;11.76;78.90
38225;BME280;24025;48.138;11.428;2022-09-13T04:50:13;95241.81;;;11.78;78.37
38225;BME280;24025;48.138;11.428;2022-09-13T04:52:44;95249.88;;;11.81;78.17
38225;BME280;24025;48.138;11.428;2022-09-13T04:55:14;95249.50;;;11.83;78.65
38225;BME280;24025;48.138;11.428;2022-09-13T04:57:45;95252.91;;;11.83;77.93
38225;BME280;24025;48.138;11.428;2022-09-13T05:00:15;95252.56;;;11.85;77.63
38225;BME280;24025;48.138;11.428;2022-09-13T05:02:45;95252.19;;;11.86;78.57
38225;BME280;24025;48.138;11.428;2022-09-13T05:05:16;95250.28;;;11.87;78.05
38225;BME280;24025;48.138;11.428;2022-09-13T05:07:49;95249.91;;;11.88;78.10
38225;BME280;24025;48.138;11.428;2022-09-13T05:10:20;95246.47;;;11.91;78.15
38225;BME280;24025;48.138;11.428;2022-09-13T05:12:51;95249.53;;;11.94;78.11
38225;BME280;24025;48.138;11.428;2022-09-13T05:15:21;95254.50;;;11.99;78.45
38225;BME280;24025;48.138;11.428;2022-09-13T05:17:52;95257.56;;;12.01;78.13
38225;BME280;24025;48.138;11.428;2022-09-13T05:20:22;95251.47;;;12.04;77.80
38225;BME280;24025;48.138;11.428;2022-09-13T05:22:54;95261.41;;;12.07;77.94
38225;BME280;24025;48.138;11.428;2022-09-13T05:25:25;95262.19;;;12.11;78.40
38225;BME280;24025;48.138;11.428;2022-09-13T05:27:55;95272.88;;;12.14;78.23
38225;BME280;24025;48.138;11.428;2022-09-13T05:30:25;95270.97;;;12.18;78.43
38225;BME280;24025;48.138;11.428;2022-09-13T05:32:56;95272.53;;;12.23;78.32
38225;BME280;24025;48.138;11.428;2022-09-13T05:35:27;95260.31;;;12.26;78.90
38225;BME280;24025;48.138;11.428;2022-09-13T05:37:57;95253.81;;;12.30;79.60
38225;BME280;24025;48.138;11.428;2022-09-13T05:40:28;95254.19;;;12.36;79.39
38225;BME280;24025;48.138;11.428;2022-09-13T05:42:58;95251.16;;;12.44;79.39
38225;BME280;24025;48.138;11.428;2022-09-13T05:45:28;95251.56;;;12.50;79.48
38225;BME280;24025;48.138;11.428;2022-09-13T05:47:59;95249.28;;;12.56;79.69
38225;BME280;24025;48.138;11.428;2022-09-13T05:50:29;95253.47;;;12.60;80.70
38225;BME280;24025;48.138;11.428;2022-09-13T05:53:13;95261.88;;;12.66;79.84
38225;BME280;24025;48.138;11.428;2022-09-13T05:55:44;95258.06;;;12.70;81.16
38225;BME280;24025;48.138;11.428;2022-09-13T05:58:14;95260.38;;;12.75;80.96
38225;BME280;24025;48.138;11.428;2022-09-13T06:00:44;95267.22;;;12.80;81.00
38225;BME280;24025;48.138;11.428;2022-09-13T06:03:15;95267.63;;;12.86;80.46
38225;BME280;24025;48.138;11.428;2022-09-13T06:05:45;95262.66;;;12.95;80.78
38225;BME280;24025;48.138;11.428;2022-09-13T06:08:16;95261.50;;;13.03;80.66
38225;BME280;24025;48.138;11.428;2022-09-13T06:10:53;95254.59;;;13.13;82.01
38225;BME280;24025;48.138;11.428;2022-09-13T06:13:24;95258.81;;;13.21;81.12
38225;BME280;24025;48.138;11.428;2022-09-13T06:15:56;95259.59;;;13.28;81.65
38225;BME280;24025;48.138;11.428;2022-09-13T06:18:27;95262.25;;;13.36;82.69
38225;BME280;24025;48.138;11.428;2022-09-13T06:21:08;95256.88;;;13.46;82.72
38225;BME280;24025;48.138;11.428;2022-09-13T06:23:39;95259.53;;;13.53;82.87
38225;BME280;24025;48.138;11.428;2022-09-13T06:26:12;95263.72;;;13.62;82.82
38225;BME280;24025;48.138;11.428;2022-09-13T06:28:46;95256.41;;;13.69;82.71
38225;BME280;24025;48.138;11.428;2022-09-13T06:31:19;95253.28;;;13.78;81.80
38225;BME280;24025;48.138;11.428;2022-09-13T06:33:55;95248.69;;;13.85;82.21
38225;BME280;24025;48.138;11.428;2022-09-13T06:36:26;95250.94;;;13.94;81.87
38225;BME280;24025;48.138;11.428;2022-09-13T06:38:57;95245.91;;;14.03;80.72
38225;BME280;24025;48.138;11.428;2022-09-13T06:41:29;95253.16;;;14.13;80.80
38225;BME280;24025;48.138;11.428;2022-09-13T06:44:00;95256.94;;;14.23;80.21
38225;BME280;24025;48.138;11.428;2022-09-13T06:46:33;95256.09;;;14.33;79.96
38225;BME280;24025;48.138;11.428;2022-09-13T06:49:06;95257.19;;;14.43;79.86
38225;BME280;24025;48.138;11.428;2022-09-13T06:51:36;95261.00;;;14.53;78.94
38225;BME280;24025;48.138;11.428;2022-09-13T06:54:07;95253.63;;;14.64;78.40
38225;BME280;24025;48.138;11.428;2022-09-13T06:56:38;95245.13;;;14.72;78.59
38225;BME280;24025;48.138;11.428;2022-09-13T06:59:09;95259.63;;;14.82;78.01
38225;BME280;24025;48.138;11.428;2022-09-13T07:01:41;95242.66;;;14.92;77.78
38225;BME280;24025;48.138;11.428;2022-09-13T07:04:14;95246.03;;;15.04;77.32
38225;BME280;24025;48.138;11.428;2022-09-13T07:06:48;95239.00;;;15.17;75.87
38225;BME280;24025;48.138;11.428;2022-09-13T07:09:20;95245.41;;;15.30;75.28
38225;BME280;24025;48.138;11.428;2022-09-13T07:11:53;95249.84;;;15.44;74.98
38225;BME280;24025;48.138;11.428;2022-09-13T07:14:26;95253.56;;;15.57;73.89
38225;BME280;24025;48.138;11.428;2022-09-13T07:16:57;95255.34;;;15.71;72.50
38225;BME280;24025;48.138;11.428;2022-09-13T07:19:27;95251.31;;;15.86;72.78
38225;BME280;24025;48.138;11.428;2022-09-13T07:21:58;95247.66;;;16.03;72.52
38225;BME280;24025;48.138;11.428;2022-09-13T07:24:29;95249.00;;;16.19;71.15
38225;BME280;24025;48.138;11.428;2022-09-13T07:26:59;95246.88;;;16.33;71.21
38225;BME280;24025;48.138;11.428;2022-09-13T07:29:30;95249.72;;;16.50;69.71
38225;BME280;24025;48.138;11.428;2022-09-13T07:32:00;95242.19;;;16.64;69.27
38225;BME280;24025;48.138;11.428;2022-09-13T07:34:31;95233.53;;;16.80;68.99
38225;BME280;24025;48.138;11.428;2022-09-13T07:37:01;95239.84;;;16.93;69.79
38225;BME280;24025;48.138;11.428;2022-09-13T07:39:32;95238.09;;;17.07;68.55
38225;BME280;24025;48.138;11.428;2022-09-13T07:42:02;95247.16;;;17.16;66.10
38225;BME280;24025;48.138;11.428;2022-09-13T07:44:33;95246.97;;;17.27;65.69
38225;BME280;24025;48.138;11.428;2022-09-13T07:47:03;95252.50;;;17.40;65.70
38225;BME280;24025;48.138;11.428;2022-09-13T07:49:33;95256.13;;;17.53;64.72
38225;BME280;24025;48.138;11.428;2022-09-13T07:52:04;95261.59;;;17.69;64.92
38225;BME280;24025;48.138;11.428;2022-09-13T07:54:34;95259.00;;;17.86;63.85
38225;BME280;24025;48.138;11.428;2022-09-13T07:57:07;95242.81;;;18.05;63.71
38225;BME280;24025;48.138;11.428;2022-09-13T07:59:37;95238.97;;;18.23;63.46
38225;BME280;24025;48.138;11.428;2022-09-13T08:02:08;95242.78;;;18.42;61.95
38225;BME280;24025;48.138;11.428;2022-09-13T08:04:38;95241.63;;;18.59;61.15
38225;BME280;24025;48.138;11.428;2022-09-13T08:07:08;95246.75;;;18.73;60.12
38225;BME280;24025;48.138;11.428;2022-09-13T08:09:39;95253.09;;;18.83;59.10
38225;BME280;24025;48.138;11.428;2022-09-13T08:12:09;95245.53;;;18.90;58.06
38225;BME280;24025;48.138;11.428;2022-09-13T08:14:40;95251.22;;;18.96;58.91
38225;BME280;24025;48.138;11.428;2022-09-13T08:17:10;95240.72;;;18.98;58.23
38225;BME280;24025;48.138;11.428;2022-09-13T08:19:40;95248.44;;;19.00;59.13
38225;BME280;24025;48.138;11.428;2022-09-13T08:22:11;95248.34;;;19.03;58.60
38225;BME280;24025;48.138;11.428;2022-09-13T08:24:41;95245.03;;;19.12;58.27
38225;BME280;24025;48.138;11.428;2022-09-13T08:27:12;95241.03;;;19.16;56.28
38225;BME280;24025;48.138;11.428;2022-09-13T08:29:42;95251.03;;;19.19;55.71
38225;BME280;24025;48.138;11.428;2022-09-13T08:32:13;95241.72;;;19.20;55.10
38225;BME280;24025;48.138;11.428;2022-09-13T08:34:43;95240.22;;;19.19;54.47
38225;BME280;24025;48.138;11.428;2022-09-13T08:37:14;95236.66;;;19.22;54.94
38225;BME280;24025;48.138;11.428;2022-09-13T08:39:44;95251.50;;;19.31;55.46
38225;BME280;24025;48.138;11.428;2022-09-13T08:42:32;95256.13;;;19.46;54.81
38225;BME280;24025;48.138;11.428;2022-09-13T08:45:08;95248.09;;;19.59;54.13
38225;BME280;24025;48.138;11.428;2022-09-13T08:47:46;95244.56;;;19.75;54.18
38225;BME280;24025;48.138;11.428;2022-09-13T08:50:31;95243.00;;;19.90;53.06
38225;BME280;24025;48.138;11.428;2022-09-13T08:53:25;95240.44;;;20.12;52.02
38225;BME280;24025;48.138;11.428;2022-09-13T08:56:06;95240.16;;;20.35;51.97
38225;BME280;24025;48.138;11.428;2022-09-13T09:04:07;95225.09;;;20.73;51.13
38225;BME280;24025;48.138;11.428;2022-09-13T09:06:41;95226.16;;;20.75;51.83
38225;BME280;24025;48.138;11.428;2022-09-13T09:09:15;95232.91;;;20.71;51.30
38225;BME280;24025;48.138;11.428;2022-09-13T09:12:00;95226.06;;;20.66;51.59
38225;BME280;24025;48.138;11.428;2022-09-13T09:14:40;95226.16;;;20.75;50.75
38225;BME280;24025;48.138;11.428;2022-09-13T09:17:17;95237.13;;;20.72;50.24
38225;BME280;24025;48.138;11.428;2022-09-13T09:19:54;95239.84;;;20.72;48.83
38225;BME280;24025;48.138;11.428;2022-09-13T09:22:33;95228.13;;;20.75;48.69
38225;BME280;24025;48.138;11.428;2022-09-13T09:25:04;95232.78;;;20.74;48.59
38225;BME280;24025;48.138;11.428;2022-09-13T09:27:34;95224.34;;;20.72;48.93
38225;BME280;24025;48.138;11.428;2022-09-13T09:30:05;95230.84;;;20.75;49.34
38225;BME280;24025;48.138;11.428;2022-09-13T09:35:49;95222.13;;;20.92;50.08
38225;BME280;24025;48.138;11.428;2022-09-13T09:38:40;95220.84;;;20.97;49.56
38225;BME280;24025;48.138;11.428;2022-09-13T09:41:25;95222.34;;;20.98;48.60
38225;BME280;24025;48.138;11.428;2022-09-13T09:46:46;95231.19;;;21.11;49.08
38225;BME280;24025;48.138;11.428;2022-09-13T09:49:34;95226.94;;;21.23;48.57
38225;BME280;24025;48.138;11.428;2022-09-13T09:52:30;95226.16;;;21.35;49.37
38225;BME280;24025;48.138;11.428;2022-09-13T09:55:29;95219.19;;;21.47;48.21
38225;BME280;24025;48.138;11.428;2022-09-13T10:00:35;95201.91;;;21.75;48.97
38225;BME280;24025;48.138;11.428;2022-09-13T10:03:16;95194.00;;;21.90;48.85
38225;BME280;24025;48.138;11.428;2022-09-13T10:05:47;95192.53;;;21.98;47.54
38225;BME280;24025;48.138;11.428;2022-09-13T10:08:30;95182.38;;;22.12;48.44
38225;BME280;24025;48.138;11.428;2022-09-13T10:11:03;95179.81;;;22.17;47.66
38225;BME280;24025;48.138;11.428;2022-09-13T10:13:34;95180.63;;;22.27;47.00
38225;BME280;24025;48.138;11.428;2022-09-13T10:16:25;95176.34;;;22.17;47.14
38225;BME280;24025;48.138;11.428;2022-09-13T10:19:22;95173.25;;;22.27;46.98
38225;BME280;24025;48.138;11.428;2022-09-13T10:22:19;95173.97;;;22.19;47.61
38225;BME280;24025;48.138;11.428;2022-09-13T10:24:50;95173.25;;;22.27;46.82
38225;BME280;24025;48.138;11.428;2022-09-13T10:27:24;95181.53;;;22.33;46.35
38225;BME280;24025;48.138;11.428;2022-09-13T10:29:57;95169.50;;;22.43;46.73
38225;BME280;24025;48.138;11.428;2022-09-13T10:32:29;95172.56;;;22.54;47.03
38225;BME280;24025;48.138;11.428;2022-09-13T10:35:14;95171.09;;;22.63;46.39
38225;BME280;24025;48.138;11.428;2022-09-13T10:37:45;95165.97;;;22.74;45.83
38225;BME280;24025;48.138;11.428;2022-09-13T10:40:25;95172.06;;;22.87;46.12
38225;BME280;24025;48.138;11.428;2022-09-13T10:42:58;95166.78;;;22.93;46.04
38225;BME280;24025;48.138;11.428;2022-09-13T10:45:31;95168.19;;;23.06;45.70
38225;BME280;24025;48.138;11.428;2022-09-13T10:48:11;95165.75;;;23.08;46.06
38225;BME280;24025;48.138;11.428;2022-09-13T10:51:05;95167.44;;;23.24;45.98
38225;BME280;24025;48.138;11.428;2022-09-13T10:53:41;95162.13;;;23.39;45.98
38225;BME280;24025;48.138;11.428;2022-09-13T10:56:24;95159.38;;;23.57;43.78
38225;BME280;24025;48.138;11.428;2022-09-13T11:02:13;95150.84;;;23.92;41.87
38225;BME280;24025;48.138;11.428;2022-09-13T11:05:29;95150.78;;;24.10;41.97
38225;BME280;24025;48.138;11.428;2022-09-13T11:08:07;95149.38;;;24.33;41.55
38225;BME280;24025;48.138;11.428;2022-09-13T11:10:50;95142.63;;;24.52;41.07
38225;BME280;24025;48.138;11.428;2022-09-13T11:27:01;95141.56;;;25.75;38.70
38225;BME280;24025;48.138;11.428;2022-09-13T11:41:03;95129.00;;;26.42;35.92
38225;BME280;24025;48.138;11.428;2022-09-13T11:46:17;95136.72;;;26.29;36.03
38225;BME280;24025;48.138;11.428;2022-09-13T11:49:02;95133.50;;;26.31;36.15
38225;BME280;24025;48.138;11.428;2022-09-13T11:51:51;95132.69;;;26.24;35.87
38225;BME280;24025;48.138;11.428;2022-09-13T11:56:59;95139.94;;;26.63;36.12
38225;BME280;24025;48.138;11.428;2022-09-13T11:59:39;95138.09;;;26.74;37.20
38225;BME280;24025;48.138;11.428;2022-09-13T12:05:22;95142.56;;;26.22;39.02
38225;BME280;24025;48.138;11.428;2022-09-13T12:08:00;95141.94;;;25.97;38.65
38225;BME280;24025;48.138;11.428;2022-09-13T12:10:56;95134.41;;;25.92;37.93
38225;BME280;24025;48.138;11.428;2022-09-13T12:13:38;95128.94;;;25.78;38.10
38225;BME280;24025;48.138;11.428;2022-09-13T12:16:43;95124.72;;;25.77;37.68
38225;BME280;24025;48.138;11.428;2022-09-13T12:22:15;95131.34;;;26.20;38.44
38225;BME280;24025;48.138;11.428;2022-09-13T12:24:50;95121.16;;;26.35;37.58
38225;BME280;24025;48.138;11.428;2022-09-13T12:27:33;95117.50;;;26.59;38.02
38225;BME280;24025;48.138;11.428;2022-09-13T12:30:15;95116.91;;;26.90;36.50
38225;BME280;24025;48.138;11.428;2022-09-13T12:32:47;95112.94;;;27.11;36.39
38225;BME280;24025;48.138;11.428;2022-09-13T12:38:16;95118.41;;;27.11;35.41
38225;BME280;24025;48.138;11.428;2022-09-13T12:47:04;95097.72;;;27.04;35.38
38225;BME280;24025;48.138;11.428;2022-09-13T13:03:32;95103.25;;;27.36;35.18
38225;BME280;24025;48.138;11.428;2022-09-13T13:08:57;95099.22;;;27.05;34.30
38225;BME280;24025;48.138;11.428;2022-09-13T13:11:41;95107.38;;;27.26;34.23
38225;BME280;24025;48.138;11.428;2022-09-13T13:23:36;95104.59;;;28.30;33.29
38225;BME280;24025;48.138;11.428;2022-09-13T13:39:12;95085.31;;;30.78;30.67
38225;BME280;24025;48.138;11.428;2022-09-13T13:49:50;95077.81;;;37.45;22.98
38225;BME280;24025;48.138;11.428;2022-09-13T13:55:29;95072.25;;;39.85;18.41
38225;BME280;24025;48.138;11.428;2022-09-13T14:00:45;95056.91;;;40.19;17.60
38225;BME280;24025;48.138;11.428;2022-09-13T14:20:18;95046.31;;;32.65;26.36
38225;BME280;24025;48.138;11.428;2022-09-13T14:22:50;95049.38;;;32.12;28.28
38225;BME280;24025;48.138;11.428;2022-09-13T14:25:24;95051.19;;;32.04;27.69
38225;BME280;24025;48.138;11.428;2022-09-13T14:27:57;95045.06;;;32.66;26.54
38225;BME280;24025;48.138;11.428;2022-09-13T14:30:34;95049.38;;;33.42;25.16
38225;BME280;24025;48.138;11.428;2022-09-13T14:33:05;95048.97;;;32.95;25.57
38225;BME280;24025;48.138;11.428;2022-09-13T14:35:39;95042.22;;;32.53;27.05
38225;BME280;24025;48.138;11.428;2022-09-13T14:38:23;95052.03;;;31.64;26.98
38225;BME280;24025;48.138;11.428;2022-09-13T14:40:58;95040.16;;;30.92;28.17
38225;BME280;24025;48.138;11.428;2022-09-13T14:43:29;95041.09;;;30.36;28.99
38225;BME280;24025;48.138;11.428;2022-09-13T14:49:00;95024.53;;;33.88;25.11
38225;BME280;24025;48.138;11.428;2022-09-13T14:51:43;95020.88;;;34.12;25.21
38225;BME280;24025;48.138;11.428;2022-09-13T14:54:35;95016.06;;;33.67;25.08
38225;BME280;24025;48.138;11.428;2022-09-13T14:57:07;95023.91;;;32.93;26.32
38225;BME280;24025;48.138;11.428;2022-09-13T14:59:45;95013.09;;;32.27;28.34
38225;BME280;24025;48.138;11.428;2022-09-13T15:02:20;95006.78;;;32.32;26.06
38225;BME280;24025;48.138;11.428;2022-09-13T15:04:53;95009.41;;;31.95;27.43
38225;BME280;24025;48.138;11.428;2022-09-13T15:07:35;95005.47;;;31.19;28.57
38225;BME280;24025;48.138;11.428;2022-09-13T15:10:19;95000.56;;;30.42;29.92
38225;BME280;24025;48.138;11.428;2022-09-13T15:15:43;95000.34;;;28.95;30.11
38225;BME280;24025;48.138;11.428;2022-09-13T15:21:01;94997.56;;;28.24;32.15
38225;BME280;24025;48.138;11.428;2022-09-13T15:23:37;95001.50;;;28.12;33.11
38225;BME280;24025;48.138;11.428;2022-09-13T15:26:19;94998.41;;;27.93;34.08
38225;BME280;24025;48.138;11.428;2022-09-13T15:28:54;94993.56;;;28.25;33.85
38225;BME280;24025;48.138;11.428;2022-09-13T15:31:31;94990.97;;;28.05;34.54
38225;BME280;24025;48.138;11.428;2022-09-13T15:36:44;94982.97;;;27.64;36.11
38225;BME280;24025;48.138;11.428;2022-09-13T15:39:17;94984.03;;;27.41;38.58
38225;BME280;24025;48.138;11.428;2022-09-13T15:41:53;94976.38;;;27.19;38.63
38225;BME280;24025;48.138;11.428;2022-09-13T15:44:25;94978.34;;;26.92;36.49
38225;BME280;24025;48.138;11.428;2022-09-13T15:47:00;94978.63;;;26.68;37.86
38225;BME280;24025;48.138;11.428;2022-09-13T15:49:33;94973.38;;;26.44;38.07
38225;BME280;24025;48.138;11.428;2022-09-13T15:52:04;94982.31;;;26.24;38.48
38225;BME280;24025;48.138;11.428;2022-09-13T15:54:38;94969.66;;;26.07;39.75
38225;BME280;24025;48.138;11.428;2022-09-13T15:57:16;94978.16;;;25.94;41.00
38225;BME280;24025;48.138;11.428;2022-09-13T15:59:48;94971.06;;;25.82;41.81
38225;BME280;24025;48.138;11.428;2022-09-13T16:04:50;94976.91;;;25.60;43.27
38225;BME280;24025;48.138;11.428;2022-09-13T16:07:22;94975.03;;;25.51;45.04
38225;BME280;24025;48.138;11.428;2022-09-13T16:09:53;94976.47;;;25.47;44.84
38225;BME280;24025;48.138;11.428;2022-09-13T16:12:24;94969.97;;;25.44;43.38
38225;BME280;24025;48.138;11.428;2022-09-13T16:14:56;94964.22;;;25.42;43.94
38225;BME280;24025;48.138;11.428;2022-09-13T16:17:26;94960.28;;;25.43;44.84
38225;BME280;24025;48.138;11.428;2022-09-13T16:19:57;94955.09;;;25.45;45.28
38225;BME280;24025;48.138;11.428;2022-09-13T16:22:28;94954.34;;;25.45;45.65
38225;BME280;24025;48.138;11.428;2022-09-13T16:24:58;94955.75;;;25.40;46.37
38225;BME280;24025;48.138;11.428;2022-09-13T16:27:28;94967.25;;;25.29;47.05
38225;BME280;24025;48.138;11.428;2022-09-13T16:29:59;94963.13;;;25.19;47.94
38225;BME280;24025;48.138;11.428;2022-09-13T16:32:29;94962.94;;;25.08;47.88
38225;BME280;24025;48.138;11.428;2022-09-13T16:35:00;94969.88;;;24.94;48.39
38225;BME280;24025;48.138;11.428;2022-09-13T16:37:30;94968.34;;;24.78;48.51
38225;BME280;24025;48.138;11.428;2022-09-13T16:40:01;94968.31;;;24.64;48.03